Latest Coastal Weather Observations for Strahan

IDT60701

Issued at 7:12 pm EST Saturday 30 July 2016 (issued every 10 minutes, with the page automatically refreshed every 10 minutes)

About coastal observations | Map of coastal stations | Coastal observations for TAS | Marine services | Other Formats
Station Details ID: 097072 Name: STRAHAN AERODROME Lat: -42.16 Lon: 145.29 Height: 21.0 m
Data from the previous 72 hours. | See also: Recent months at Strahan
Date/Time
EST
Temp
°C
Wind Pressure Rain since
9am
mm
Weather Cloud Vis
km
Sea
Height
m
Swell
Dir  Spd
kts
Gust
kts
hPa Trend Height
m
Period
s
Dir
30/07:00pm 10.9 N 11 19 1007.4 - 0.0 - Partly cloudy 10 - - - -
30/06:30pm 10.7 N 12 20 1007.4 - 0.0 - - 10 - - - -
30/06:00pm 10.7 NNE 10 17 1007.8 - 0.0 - Cloudy 10 - - - -
30/05:30pm 10.9 N 11 19 1008.9 - 0.0 - Partly cloudy 10 - - - -
30/05:00pm 10.8 N 12 18 1009.2 - 0.0 - Partly cloudy 10 - - - -
30/04:30pm 10.8 N 11 19 1009.0 - 0.0 - Partly cloudy 10 - - - -
30/04:00pm 10.8 N 10 17 1009.9 - 0.0 - Cloudy 10 - - - -
30/03:30pm 10.6 NNE 9 15 1010.2 - 0.0 - Cloudy 10 - - - -
30/03:00pm 10.6 NNE 7 14 1011.0 - 0.0 - Cloudy 10 - - - -
30/02:30pm 10.8 NNE 10 17 1011.3 - 0.0 - Partly cloudy 10 - - - -
30/02:00pm 10.5 NNE 11 16 1012.4 - 0.0 - Cloudy 10 - - - -
30/01:30pm 11.2 N 10 16 1012.7 - 0.0 - Cloudy 10 - - - -
30/01:00pm 11.2 N 12 18 1013.6 - 0.0 - Cloudy 10 - - - -
30/12:30pm 11.1 N 13 18 1014.5 - 0.0 - Partly cloudy 10 - - - -
30/12:00pm 11.0 N 11 18 1014.9 - 0.0 - - 10 - - - -
30/11:30am 10.3 NNE 11 16 1016.0 - 0.0 - Partly cloudy 10 - - - -
30/11:00am 9.8 NNE 9 12 1017.0 - 0.0 - Partly cloudy 10 - - - -
30/10:30am 9.1 NNE 9 14 1017.3 - 0.0 - - 10 - - - -
30/10:00am 8.3 NE 9 14 1017.4 - 0.0 - - 10 - - - -
30/09:30am 7.4 NE 8 12 1017.7 - 0.0 - Partly cloudy 10 - - - -
30/09:00am 6.4 NNE 7 11 1017.8 - 6.0 - Mostly cloudy 10 - - - -
30/08:30am 5.8 NNE 7 10 1018.1 - 6.0 - Cloudy 10 - - - -
30/08:00am 5.5 NE 7 9 1018.1 - 6.0 - Cloudy 10 - - - -
30/07:30am 5.5 NNE 6 8 1018.3 - 6.0 - Cloudy 10 - - - -
30/07:00am 5.5 N 6 8 1018.3 - 6.0 - Cloudy 10 - - - -
30/06:30am 5.5 NE 5 7 1018.3 - 6.0 - Cloudy 10 - - - -
30/06:00am 5.4 NE 6 8 1018.4 - 6.0 - Mostly cloudy 10 - - - -
30/05:30am 5.3 NNE 4 6 1018.6 - 6.0 - Cloudy 10 - - - -
30/05:00am 5.3 NNE 5 7 1018.5 - 6.0 - Cloudy 10 - - - -
30/04:30am 5.3 NE 3 5 1018.5 - 6.0 - Cloudy 10 - - - -
30/04:00am 5.3 NNE 6 8 1018.7 - 6.0 - Cloudy 10 - - - -
30/03:30am 5.2 NE 4 7 1019.0 - 6.0 - Cloudy 10 - - - -
30/03:00am 5.1 NNE 5 6 1018.9 - 6.0 - Cloudy 10 - - - -
30/02:30am 4.8 NNE 4 6 1019.0 - 6.0 - Cloudy 10 - - - -
30/02:00am 4.3 NE 6 7 1018.8 - 6.0 - Partly cloudy 10 - - - -
30/01:30am 3.8 ENE 4 5 1018.9 - 6.0 - - 10 - - - -
30/01:00am 4.3 NNE 5 6 1018.8 - 6.0 - - 10 - - - -
30/12:30am 4.6 NNE 4 6 1018.9 - 6.0 - Partly cloudy 10 - - - -
30/12:00am 5.0 NE 5 5 1019.0 - 6.0 - Mostly clear 10 - - - -
 
Date/Time
EST
Temp
°C
Wind Pressure Rain since
9am
mm
Weather Cloud Vis
km
Sea
Height
m
Swell
Dir  Spd
kts
Gust
kts
hPa Trend Height
m
Period
s
Dir
29/11:30pm 5.2 E 3 4 1019.0 - 6.0 - Partly cloudy 10 - - - -
29/11:00pm 6.6 SSE 6 8 1018.9 - 6.0 - Partly cloudy 10 - - - -
29/10:30pm 6.6 SW 6 8 1018.6 - 6.0 - Partly cloudy 10 - - - -
29/10:00pm 7.1 W 6 7 1018.3 - 6.0 - Cloudy 10 - - - -
29/09:30pm 7.4 WSW 12 16 1018.3 - 6.0 - Partly cloudy 10 - - - -
29/09:00pm 6.4 S 6 14 1018.0 - 6.0 - Partly cloudy 10 - - - -
29/08:30pm 6.4 SW 3 5 1017.5 - 6.0 - Partly cloudy 10 - - - -
29/08:00pm 6.8 SW 5 7 1017.4 - 6.0 - Partly cloudy 10 - - - -
29/07:46pm 7.1 SSW 9 17 1017.4 - 6.0 - Partly cloudy 10 - - - -
29/07:32pm 6.9 SSW 12 19 1017.3 - 5.8 - Partly cloudy 5 - - - -
29/07:30pm 6.9 SSW 12 19 1017.3 - 5.8 - Partly cloudy 7 - - - -
29/07:00pm 6.9 SW 9 11 1016.4 - 5.6 - - 10 - - - -
29/06:30pm 7.5 SW 10 13 1016.0 - 5.6 - Partly cloudy 10 - - - -
29/06:00pm 8.0 SW 9 13 1015.4 - 5.6 Recent precip. Mostly cloudy 10 - - - -
29/05:30pm 8.2 SW 8 12 1014.6 - 5.6 - Partly cloudy 10 - - - -
29/05:00pm 8.8 SW 7 12 1013.8 - 5.4 - Partly cloudy 9 - - - -
29/04:41pm 9.3 SW 12 23 1013.6 - 5.4 - Partly cloudy 5 - - - -
29/04:30pm 9.9 WSW 11 17 1013.0 - 4.8 - Partly cloudy 10 - - - -
29/04:00pm 9.7 SW 15 23 1012.6 - 4.8 - Partly cloudy 8 - - - -
29/03:36pm 10.5 WSW 18 28 1012.1 - 4.8 - Partly cloudy 10 - - - -
29/03:30pm 10.7 W 20 28 1011.9 - 4.8 - Partly cloudy 9 - - - -
29/03:15pm 11.3 W 15 21 1011.6 - 4.6 - Partly cloudy 10 - - - -
29/03:00pm 10.1 W 19 26 1011.3 - 4.6 Rain Cloudy 2 - - - -
29/02:43pm 10.9 W 17 27 1011.1 - 1.8 - Partly cloudy 5 - - - -
29/02:31pm 11.8 WNW 15 25 1010.8 - 1.2 - Partly cloudy 10 - - - -
29/02:30pm 11.8 W 16 25 1010.8 - 1.2 - Partly cloudy 10 - - - -
29/02:00pm 11.8 W 20 28 1011.0 - 1.2 - Partly cloudy 10 - - - -
29/01:30pm 11.4 W 17 23 1011.1 - 1.2 - Partly cloudy 10 - - - -
29/01:00pm 11.2 WNW 15 21 1011.0 - 1.2 - Partly cloudy 7 - - - -
29/12:33pm 10.9 WNW 17 27 1011.3 - 1.2 - Partly cloudy 10 - - - -
29/12:30pm 10.9 WNW 18 27 1011.3 - 1.2 - Partly cloudy 10 - - - -
29/12:29pm 10.9 WNW 18 27 1011.3 - 1.2 - Partly cloudy 10 - - - -
29/12:27pm 10.9 WNW 17 27 1011.4 - 1.2 - Partly cloudy 10 - - - -
29/12:16pm 10.9 WNW 16 23 1011.5 - 1.2 - Partly cloudy 5 - - - -
29/12:00pm 11.4 WNW 16 25 1011.5 - 1.0 - Cloudy 10 - - - -
29/11:30am 11.3 W 16 27 1011.7 - 1.0 - Partly cloudy 10 - - - -
29/11:05am 10.5 WNW 17 27 1011.8 - 1.0 - Partly cloudy 10 - - - -
29/11:00am 10.5 WNW 18 27 1011.8 - 1.0 - Partly cloudy 10 - - - -
29/10:58am 10.5 WNW 19 27 1011.8 - 1.0 - Partly cloudy 10 - - - -
29/10:45am 9.9 WNW 19 29 1011.9 - 1.0 - Partly cloudy 5 - - - -
29/10:39am 10.7 WNW 15 27 1011.8 - 0.8 - Partly cloudy 10 - - - -
29/10:30am 10.5 WNW 15 22 1011.7 - 0.8 - Partly cloudy 10 - - - -
29/10:08am 10.3 WNW 17 25 1011.5 - 0.8 - Partly cloudy 8 - - - -
29/10:00am 10.4 WNW 16 23 1011.6 - 0.8 - Partly cloudy 7 - - - -
29/09:48am 10.3 WNW 17 25 1011.7 - 0.6 - Partly cloudy 5 - - - -
29/09:30am 10.9 NW 14 19 1011.4 - 0.0 - Partly cloudy 10 - - - -
29/09:00am 10.5 WNW 15 22 1011.8 - 6.2 - Cloudy 10 - - - -
29/08:30am 10.1 WNW 17 27 1011.9 - 6.2 - Partly cloudy 10 - - - -
29/08:28am 10.1 WNW 17 27 1011.9 - 6.2 - Partly cloudy 10 - - - -
29/08:00am 9.9 WNW 16 22 1011.6 - 6.2 - Partly cloudy 10 - - - -
29/07:40am 10.0 WNW 17 25 1011.6 - 6.2 - Partly cloudy 7 - - - -
29/07:30am 9.9 NW 18 23 1011.4 - 6.0 - Partly cloudy 5 - - - -
29/07:13am 10.2 NW 16 26 1011.4 - 5.6 - Partly cloudy 5 - - - -
29/07:12am 10.2 NW 15 22 1011.4 - 5.6 - Partly cloudy 5 - - - -
29/07:00am 10.1 NW 14 20 1011.4 - 5.4 - Partly cloudy 8 - - - -
29/06:42am 10.0 WNW 14 21 1011.6 - 5.4 - Partly cloudy 5 - - - -
29/06:30am 10.2 WNW 14 19 1011.6 - 5.2 - Partly cloudy 10 - - - -
29/06:11am 9.7 WNW 12 15 1011.7 - 5.2 - Partly cloudy 10 - - - -
29/06:00am 9.5 WNW 16 22 1011.8 - 5.2 Recent precip. Cloudy 4 - - - -
29/05:54am 9.6 WNW 18 25 1012.0 - 5.2 - Partly cloudy 5 - - - -
29/05:30am 9.9 NW 15 21 1011.7 - 5.2 - Partly cloudy 10 - - - -
29/05:00am 10.1 WNW 16 25 1011.8 - 5.0 - Partly cloudy 10 - - - -
29/04:30am 9.6 NW 13 21 1011.7 - 5.0 - Partly cloudy 7 - - - -
29/04:18am 9.7 NW 14 20 1011.9 - 4.8 - Partly cloudy 10 - - - -
29/04:00am 9.9 WNW 15 24 1012.2 - 4.8 - Partly cloudy 5 - - - -
29/03:30am 10.3 WNW 13 19 1012.3 - 4.6 - Partly cloudy 10 - - - -
29/03:00am 9.9 WNW 16 22 1012.5 - 4.6 - Mostly cloudy 9 - - - -
29/02:30am 9.8 NW 19 24 1012.7 - 4.6 - Partly cloudy 10 - - - -
29/02:15am 9.6 NW 14 20 1012.7 - 4.6 - Partly cloudy 10 - - - -
29/02:02am 9.3 WNW 17 27 1012.7 - 4.6 - Partly cloudy 4 - - - -
29/02:00am 9.3 WNW 19 27 1012.7 - 4.6 - Partly cloudy 3 - - - -
29/01:55am 9.6 WNW 19 27 1012.8 - 4.4 - Partly cloudy 5 - - - -
29/01:51am 10.0 WNW 17 27 1012.8 - 4.4 - Partly cloudy 10 - - - -
29/01:30am 10.3 NW 15 22 1012.8 - 4.4 - Partly cloudy 10 - - - -
29/01:00am 10.2 NW 14 19 1012.9 - 4.4 - Partly cloudy 10 - - - -
29/12:30am 10.4 NW 16 22 1013.1 - 4.4 - Partly cloudy 10 - - - -
29/12:00am 10.4 NW 16 22 1013.5 - 4.4 - Partly cloudy 10 - - - -
 
Date/Time
EST
Temp
°C
Wind Pressure Rain since
9am
mm
Weather Cloud Vis
km
Sea
Height
m
Swell
Dir  Spd
kts
Gust
kts
hPa Trend Height
m
Period
s
Dir
28/11:30pm 10.0 NW 14 20 1013.7 - 4.4 - Partly cloudy 10 - - - -
28/11:00pm 9.9 NW 14 19 1013.8 - 4.4 - Partly cloudy 10 - - - -
28/10:30pm 9.4 NW 13 17 1014.1 - 4.4 - Partly cloudy 10 - - - -
28/10:00pm 9.3 NW 13 17 1014.3 - 4.4 - Partly cloudy 10 - - - -
28/09:48pm 9.1 NW 13 19 1014.4 - 4.4 - Partly cloudy 10 - - - -
28/09:30pm 9.1 WNW 16 23 1014.7 - 4.2 - Partly cloudy 5 - - - -
28/09:29pm 9.1 WNW 15 23 1014.7 - 4.2 - Partly cloudy 5 - - - -
28/09:00pm 9.3 WNW 14 21 1014.8 - 4.2 - Mostly cloudy 10 - - - -
28/08:55pm 9.2 WNW 16 23 1014.8 - 4.2 - Partly cloudy 10 - - - -
28/08:39pm 9.7 W 12 21 1015.1 - 4.2 - Partly cloudy 5 - - - -
28/08:30pm 9.7 WNW 12 18 1015.1 - 4.2 - Partly cloudy 10 - - - -
28/08:00pm 9.2 NW 13 18 1015.2 - 4.2 - Partly cloudy 10 - - - -
28/07:33pm 9.3 WNW 11 15 1015.3 - 4.2 - Partly cloudy 10 - - - -
28/07:30pm 9.3 WNW 10 14 1015.3 - 4.2 - Partly cloudy 10 - - - -
28/07:08pm 9.6 W 13 21 1015.4 - 3.6 - Partly cloudy 5 - - - -
28/07:00pm 9.8 WNW 13 19 1015.3 - 3.6 - Partly cloudy 10 - - - -
28/06:42pm 9.5 WNW 9 14 1015.2 - 3.6 - Partly cloudy 10 - - - -
28/06:30pm 8.8 W 11 19 1015.3 - 3.6 - Partly cloudy 4 - - - -
28/06:18pm 9.2 WNW 15 25 1015.3 - 3.4 - Partly cloudy 4 - - - -
28/06:16pm 9.3 WNW 14 24 1015.3 - 3.2 - Partly cloudy 5 - - - -
28/06:00pm 9.4 WNW 14 19 1014.9 - 2.8 Recent precip. Cloudy 8 - - - -
28/05:35pm 9.2 WNW 14 21 1014.6 - 2.8 - Partly cloudy 10 - - - -
28/05:30pm 9.3 W 16 23 1014.7 - 2.8 - Partly cloudy 9 - - - -
28/05:11pm 9.8 WNW 15 23 1014.5 - 2.6 - Partly cloudy 5 - - - -
28/05:00pm 9.9 WNW 13 17 1014.4 - 2.4 - Partly cloudy 10 - - - -
28/04:56pm 9.9 WNW 13 19 1014.4 - 2.4 - Partly cloudy 10 - - - -
28/04:33pm 10.0 WNW 13 23 1014.4 - 2.0 - Partly cloudy 5 - - - -
28/04:30pm 10.4 WNW 11 21 1014.3 - 1.6 - Partly cloudy 9 - - - -
28/04:00pm 10.5 WNW 13 20 1014.2 - 1.6 - Partly cloudy 10 - - - -
28/03:39pm 9.5 W 13 18 1014.4 - 1.6 - Partly cloudy 10 - - - -
28/03:30pm 9.6 W 13 19 1014.5 - 1.6 - Partly cloudy 7 - - - -
28/03:16pm 9.8 WNW 20 32 1014.5 - 1.2 - Partly cloudy 5 - - - -
28/03:13pm 10.0 WNW 18 32 1014.4 - 1.2 - Partly cloudy 10 - - - -
28/03:00pm 10.8 W 17 25 1014.3 - 1.2 - Mostly cloudy 10 - - - -
28/02:30pm 11.0 WNW 13 18 1013.9 - 1.2 - Partly cloudy 10 - - - -
28/02:00pm 10.3 W 13 16 1014.0 - 1.2 - Partly cloudy 7 - - - -
28/01:30pm 10.2 WNW 17 25 1014.2 - 1.2 - Partly cloudy 10 - - - -
28/01:22pm 10.2 WNW 16 22 1014.1 - 1.2 - Partly cloudy 10 - - - -
28/01:08pm 10.6 W 14 19 1014.3 - 1.2 - Partly cloudy 5 - - - -
28/01:00pm 10.7 WNW 15 19 1014.3 - 1.0 - Partly cloudy 10 - - - -
28/12:30pm 10.7 WNW 16 24 1014.5 - 1.0 - Partly cloudy 10 - - - -
28/12:21pm 10.7 WNW 13 19 1014.6 - 1.0 - Partly cloudy 10 - - - -
28/12:00pm 10.5 W 17 27 1014.8 - 0.8 Recent precip. Cloudy 5 - - - -
28/11:59am 10.6 W 17 27 1014.8 - 0.8 - Partly cloudy 6 - - - -
28/11:35am 10.9 W 16 23 1014.9 - 0.8 - Partly cloudy 9 - - - -
28/11:30am 10.4 WNW 16 23 1014.9 - 0.8 - Partly cloudy 6 - - - -
28/11:15am 10.2 WNW 17 32 1015.0 - 0.6 - Partly cloudy 5 - - - -
28/11:13am 10.5 WNW 15 30 1014.9 - 0.6 - Partly cloudy 7 - - - -
28/11:00am 10.8 W 16 22 1015.0 - 0.4 - Partly cloudy 8 - - - -
28/10:30am 10.7 WNW 16 21 1014.9 - 0.4 - Partly cloudy 10 - - - -
28/10:11am 10.7 WNW 17 22 1014.7 - 0.4 - Partly cloudy 10 - - - -
28/10:00am 10.3 WNW 18 24 1014.5 - 0.4 - Partly cloudy 5 - - - -
28/09:56am 10.4 WNW 18 24 1014.5 - 0.4 - Partly cloudy 5 - - - -
28/09:39am 10.7 WNW 15 23 1014.4 - 0.4 - Partly cloudy 10 - - - -
28/09:30am 10.7 WNW 16 26 1014.4 - 0.2 - Partly cloudy 6 - - - -
28/09:24am 10.6 WNW 17 24 1014.6 - 0.2 - Partly cloudy 5 - - - -
28/09:09am 10.6 WNW 16 27 1014.3 - 0.0 - Partly cloudy 7 - - - -
28/09:00am 10.8 WNW 15 22 1014.3 - 6.4 Recent precip. Cloudy 10 - - - -
28/08:30am 10.5 WNW 17 27 1013.9 - 6.4 - Partly cloudy 7 - - - -
28/08:28am 10.6 WNW 16 27 1013.8 - 6.4 - Partly cloudy 8 - - - -
28/08:26am 10.6 WNW 15 23 1013.8 - 6.4 - Partly cloudy 10 - - - -
28/08:07am 10.6 WNW 15 25 1013.8 - 6.2 - Partly cloudy 5 - - - -
28/08:00am 10.5 WNW 13 20 1013.7 - 6.0 - Partly cloudy 7 - - - -
28/07:51am 10.5 WNW 15 21 1013.5 - 5.8 - Partly cloudy 10 - - - -
28/07:31am 10.3 WNW 19 35 1013.3 - 5.8 - Partly cloudy 5 - - - -
28/07:30am 10.6 WNW 18 35 1013.2 - 5.4 - Partly cloudy 7 - - - -
28/07:21am 10.5 WNW 19 28 1013.2 - 5.2 - Partly cloudy 9 - - - -
28/07:13am 10.4 WNW 17 28 1013.2 - 5.2 - Partly cloudy 8 - - - -
28/07:03am 10.4 WNW 17 25 1013.1 - 5.2 - Partly cloudy 5 - - - -
28/07:00am 10.6 WNW 16 25 1013.0 - 5.2 - Partly cloudy 9 - - - -
28/06:58am 10.6 WNW 15 23 1013.0 - 5.2 - Partly cloudy 10 - - - -
28/06:41am 10.4 WNW 18 26 1012.9 - 5.2 - Partly cloudy 5 - - - -
28/06:40am 10.4 WNW 17 26 1012.9 - 5.2 - Partly cloudy 6 - - - -
28/06:30am 10.4 WNW 17 25 1012.8 - 5.0 - Partly cloudy 5 - - - -
28/06:22am 10.1 WNW 21 31 1012.8 - 5.0 - Partly cloudy 5 - - - -
28/06:19am 10.3 WNW 20 31 1012.7 - 5.0 - Partly cloudy 9 - - - -
28/06:00am 10.6 WNW 17 26 1012.5 - 5.0 Recent precip. Cloudy 6 - - - -
28/05:31am 10.4 WNW 16 28 1012.1 - 5.0 - Partly cloudy 10 - - - -
28/05:30am 10.5 WNW 15 28 1012.1 - 5.0 - Partly cloudy 10 - - - -
28/05:21am 10.3 WNW 17 27 1012.1 - 5.0 - Partly cloudy 5 - - - -
28/05:12am 10.4 WNW 19 27 1012.1 - 5.0 - Partly cloudy 5 - - - -
28/05:00am 10.8 WNW 18 25 1012.0 - 4.6 - Partly cloudy 10 - - - -
28/04:30am 10.4 WNW 20 30 1011.9 - 4.6 - Partly cloudy 10 - - - -
28/04:29am 10.4 WNW 20 30 1011.9 - 4.6 - Partly cloudy 10 - - - -
28/04:09am 10.4 WNW 19 31 1012.0 - 4.2 - Partly cloudy 5 - - - -
28/04:00am 10.3 WNW 16 22 1011.9 - 4.0 - Partly cloudy 10 - - - -
28/03:44am 10.2 WNW 20 29 1011.9 - 4.0 - Partly cloudy 5 - - - -
28/03:41am 10.1 WNW 19 29 1011.9 - 4.0 - Partly cloudy 7 - - - -
28/03:37am 10.4 WNW 17 27 1012.0 - 4.0 - Partly cloudy 10 - - - -
28/03:33am 10.2 WNW 16 24 1012.0 - 4.0 - Partly cloudy 8 - - - -
28/03:30am 10.2 W 17 24 1012.1 - 4.0 - Partly cloudy 5 - - - -
28/03:19am 10.5 WNW 17 25 1012.1 - 3.6 - Partly cloudy 5 - - - -
28/03:15am 10.6 WNW 15 25 1012.2 - 3.4 - Partly cloudy 10 - - - -
28/03:00am 10.4 WNW 14 20 1012.3 - 3.4 Recent precip. Cloudy 9 - - - -
28/02:52am 10.4 WNW 16 21 1012.4 - 3.4 - Partly cloudy 9 - - - -
28/02:32am 10.4 WNW 17 24 1012.3 - 3.0 - Partly cloudy 5 - - - -
28/02:30am 10.6 WNW 16 23 1012.4 - 2.8 - Partly cloudy 7 - - - -
28/02:00am 11.0 W 15 20 1012.5 - 2.6 - - 10 - - - -
28/01:30am 10.5 WNW 17 25 1012.5 - 2.6 - Partly cloudy 9 - - - -
28/01:00am 11.1 WNW 17 25 1012.3 - 2.6 - Partly cloudy 10 - - - -
28/12:30am 11.0 WNW 15 23 1011.8 - 2.6 - Partly cloudy 10 - - - -
28/12:00am 10.9 WNW 14 20 1011.9 - 2.6 - Cloudy 10 - - - -
 
Date/Time
EST
Temp
°C
Wind Pressure Rain since
9am
mm
Weather Cloud Vis
km
Sea
Height
m
Swell
Dir  Spd
kts
Gust
kts
hPa Trend Height
m
Period
s
Dir
27/11:30pm 10.8 W 14 19 1011.8 - 2.6 - Partly cloudy 10 - - - -
27/11:00pm 10.9 W 14 22 1011.7 - 2.6 - Partly cloudy 10 - - - -
27/10:30pm 11.0 W 15 20 1011.4 - 2.6 - Partly cloudy 10 - - - -
27/10:00pm 10.7 W 15 23 1011.2 - 2.6 - Partly cloudy 10 - - - -
27/09:30pm 10.8 W 18 26 1010.7 - 2.6 - Partly cloudy 10 - - - -
27/09:00pm 10.9 W 17 25 1010.3 - 2.6 - Cloudy 10 - - - -
27/08:45pm 10.7 WSW 19 29 1010.2 - 2.6 - Partly cloudy 10 - - - -
27/08:30pm 10.6 WSW 19 28 1010.1 - 2.6 - Partly cloudy 10 - - - -
27/08:16pm 10.7 W 19 30 1010.0 - 2.6 - Partly cloudy 6 - - - -
27/08:00pm 11.0 W 21 28 1009.9 - 2.6 - Partly cloudy 10 - - - -
27/07:33pm 10.8 WSW 20 30 1009.3 - 2.6 - Partly cloudy 9 - - - -
27/07:32pm 10.7 WSW 21 30 1009.2 - 2.6 - Partly cloudy 9 - - - -
27/07:30pm 10.7 WSW 22 34 1009.2 - 2.6 - Partly cloudy 9 - - - -

Other Formats:

Comma delimited format used in spreadsheet applications
http://www.bom.gov.au/fwo/IDT60701/IDT60701.94956.axf

JavaScript Object Notation format (JSON) in row-major order
http://www.bom.gov.au/fwo/IDT60701/IDT60701.94956.json